sensor_id;sensor_type;location;lat;lon;timestamp;temperature;humidity
69335;SHT31;56477;52.742;15.242;2023-02-15T00:01:55;0.96;93.01
69335;SHT31;56477;52.742;15.242;2023-02-15T00:04:24;1.00;93.17
69335;SHT31;56477;52.742;15.242;2023-02-15T00:07:10;0.97;93.10
69335;SHT31;56477;52.742;15.242;2023-02-15T00:09:36;0.93;93.13
69335;SHT31;56477;52.742;15.242;2023-02-15T00:12:02;0.88;93.27
69335;SHT31;56477;52.742;15.242;2023-02-15T00:14:28;0.97;93.37
69335;SHT31;56477;52.742;15.242;2023-02-15T00:16:54;0.95;93.12
69335;SHT31;56477;52.742;15.242;2023-02-15T00:19:21;0.85;93.08
69335;SHT31;56477;52.742;15.242;2023-02-15T00:21:48;0.84;93.44
69335;SHT31;56477;52.742;15.242;2023-02-15T00:24:16;0.88;93.39
69335;SHT31;56477;52.742;15.242;2023-02-15T00:26:43;0.82;93.35
69335;SHT31;56477;52.742;15.242;2023-02-15T00:29:10;0.84;93.29
69335;SHT31;56477;52.742;15.242;2023-02-15T00:31:37;0.81;93.31
69335;SHT31;56477;52.742;15.242;2023-02-15T00:34:07;0.79;93.51
69335;SHT31;56477;52.742;15.242;2023-02-15T00:36:33;0.67;93.37
69335;SHT31;56477;52.742;15.242;2023-02-15T00:38:59;0.64;93.81
69335;SHT31;56477;52.742;15.242;2023-02-15T00:41:25;0.68;93.80
69335;SHT31;56477;52.742;15.242;2023-02-15T00:43:51;0.67;93.84
69335;SHT31;56477;52.742;15.242;2023-02-15T00:46:17;0.67;93.81
69335;SHT31;56477;52.742;15.242;2023-02-15T00:48:43;0.71;93.77
69335;SHT31;56477;52.742;15.242;2023-02-15T00:51:09;0.74;93.70
69335;SHT31;56477;52.742;15.242;2023-02-15T00:53:35;0.71;93.63
69335;SHT31;56477;52.742;15.242;2023-02-15T00:56:01;0.65;93.55
69335;SHT31;56477;52.742;15.242;2023-02-15T00:58:27;0.65;93.53
69335;SHT31;56477;52.742;15.242;2023-02-15T01:00:53;0.67;93.68
69335;SHT31;56477;52.742;15.242;2023-02-15T01:03:20;0.69;93.65
69335;SHT31;56477;52.742;15.242;2023-02-15T01:05:48;0.67;93.47
69335;SHT31;56477;52.742;15.242;2023-02-15T01:08:15;0.62;93.42
69335;SHT31;56477;52.742;15.242;2023-02-15T01:10:41;0.57;93.72
69335;SHT31;56477;52.742;15.242;2023-02-15T01:13:09;0.58;93.73
69335;SHT31;56477;52.742;15.242;2023-02-15T01:15:35;0.54;93.67
69335;SHT31;56477;52.742;15.242;2023-02-15T01:18:01;0.47;93.78
69335;SHT31;56477;52.742;15.242;2023-02-15T01:20:28;0.41;94.06
69335;SHT31;56477;52.742;15.242;2023-02-15T01:22:56;0.34;94.24
69335;SHT31;56477;52.742;15.242;2023-02-15T01:25:23;0.36;94.41
69335;SHT31;56477;52.742;15.242;2023-02-15T01:27:50;0.33;94.38
69335;SHT31;56477;52.742;15.242;2023-02-15T01:30:16;0.24;94.43
69335;SHT31;56477;52.742;15.242;2023-02-15T01:32:43;0.18;94.66
69335;SHT31;56477;52.742;15.242;2023-02-15T01:35:10;0.14;94.81
69335;SHT31;56477;52.742;15.242;2023-02-15T01:37:37;0.10;94.88
69335;SHT31;56477;52.742;15.242;2023-02-15T01:40:04;0.07;94.97
69335;SHT31;56477;52.742;15.242;2023-02-15T01:42:31;-0.05;95.11
69335;SHT31;56477;52.742;15.242;2023-02-15T01:44:58;-0.15;95.24
69335;SHT31;56477;52.742;15.242;2023-02-15T01:47:46;-0.25;95.90
69335;SHT31;56477;52.742;15.242;2023-02-15T01:50:38;-0.31;95.88
69335;SHT31;56477;52.742;15.242;2023-02-15T01:58:19;-0.38;96.17
69335;SHT31;56477;52.742;15.242;2023-02-15T02:00:47;-0.39;96.14
69335;SHT31;56477;52.742;15.242;2023-02-15T02:03:13;-0.45;96.01
69335;SHT31;56477;52.742;15.242;2023-02-15T02:05:40;-0.51;96.19
69335;SHT31;56477;52.742;15.242;2023-02-15T02:08:07;-0.52;96.24
69335;SHT31;56477;52.742;15.242;2023-02-15T02:10:36;-0.52;96.28
69335;SHT31;56477;52.742;15.242;2023-02-15T02:13:05;-0.52;96.35
69335;SHT31;56477;52.742;15.242;2023-02-15T02:18:15;-0.53;96.46
69335;SHT31;56477;52.742;15.242;2023-02-15T02:27:05;-0.53;96.49
69335;SHT31;56477;52.742;15.242;2023-02-15T02:40:24;-0.43;96.36
69335;SHT31;56477;52.742;15.242;2023-02-15T02:43:25;-0.43;96.45
69335;SHT31;56477;52.742;15.242;2023-02-15T02:46:08;-0.43;96.41
69335;SHT31;56477;52.742;15.242;2023-02-15T02:48:36;-0.41;96.41
69335;SHT31;56477;52.742;15.242;2023-02-15T02:51:03;-0.43;96.31
69335;SHT31;56477;52.742;15.242;2023-02-15T02:53:30;-0.39;96.51
69335;SHT31;56477;52.742;15.242;2023-02-15T02:56:00;-0.38;96.36
69335;SHT31;56477;52.742;15.242;2023-02-15T02:58:37;-0.36;96.41
69335;SHT31;56477;52.742;15.242;2023-02-15T03:01:10;-0.35;96.42
69335;SHT31;56477;52.742;15.242;2023-02-15T03:03:50;-0.32;96.32
69335;SHT31;56477;52.742;15.242;2023-02-15T03:06:22;-0.31;96.24
69335;SHT31;56477;52.742;15.242;2023-02-15T03:08:57;-0.33;96.17
69335;SHT31;56477;52.742;15.242;2023-02-15T03:11:24;-0.38;96.01
69335;SHT31;56477;52.742;15.242;2023-02-15T03:13:50;-0.45;96.04
69335;SHT31;56477;52.742;15.242;2023-02-15T03:16:17;-0.46;96.18
69335;SHT31;56477;52.742;15.242;2023-02-15T03:19:01;-0.45;96.21
69335;SHT31;56477;52.742;15.242;2023-02-15T03:21:50;-0.48;96.25
69335;SHT31;56477;52.742;15.242;2023-02-15T03:24:35;-0.46;96.27
69335;SHT31;56477;52.742;15.242;2023-02-15T03:27:04;-0.51;96.18
69335;SHT31;56477;52.742;15.242;2023-02-15T03:29:33;-0.55;96.26
69335;SHT31;56477;52.742;15.242;2023-02-15T03:32:02;-0.59;96.33
69335;SHT31;56477;52.742;15.242;2023-02-15T03:34:28;-0.58;96.41
69335;SHT31;56477;52.742;15.242;2023-02-15T03:42:09;-0.56;96.36
69335;SHT31;56477;52.742;15.242;2023-02-15T03:44:50;-0.51;96.62
69335;SHT31;56477;52.742;15.242;2023-02-15T03:47:22;-0.46;96.36
69335;SHT31;56477;52.742;15.242;2023-02-15T03:49:54;-0.49;96.27
69335;SHT31;56477;52.742;15.242;2023-02-15T03:52:21;-0.56;96.17
69335;SHT31;56477;52.742;15.242;2023-02-15T03:54:49;-0.56;96.31
69335;SHT31;56477;52.742;15.242;2023-02-15T03:57:27;-0.45;96.65
69335;SHT31;56477;52.742;15.242;2023-02-15T04:05:53;-0.38;96.14
69335;SHT31;56477;52.742;15.242;2023-02-15T04:08:20;-0.35;96.10
69335;SHT31;56477;52.742;15.242;2023-02-15T04:10:46;-0.33;95.98
69335;SHT31;56477;52.742;15.242;2023-02-15T04:13:30;-0.33;95.88
69335;SHT31;56477;52.742;15.242;2023-02-15T04:15:56;-0.31;95.78
69335;SHT31;56477;52.742;15.242;2023-02-15T04:18:34;-0.39;95.60
69335;SHT31;56477;52.742;15.242;2023-02-15T04:21:19;-0.51;95.58
69335;SHT31;56477;52.742;15.242;2023-02-15T04:24:05;-0.52;95.89
69335;SHT31;56477;52.742;15.242;2023-02-15T04:26:49;-0.53;95.83
69335;SHT31;56477;52.742;15.242;2023-02-15T04:29:19;-0.58;95.91
69335;SHT31;56477;52.742;15.242;2023-02-15T04:31:46;-0.59;96.03
69335;SHT31;56477;52.742;15.242;2023-02-15T04:34:13;-0.63;96.02
69335;SHT31;56477;52.742;15.242;2023-02-15T04:36:40;-0.65;96.16
69335;SHT31;56477;52.742;15.242;2023-02-15T04:39:06;-0.66;96.29
69335;SHT31;56477;52.742;15.242;2023-02-15T04:41:33;-0.68;96.15
69335;SHT31;56477;52.742;15.242;2023-02-15T04:44:00;-0.72;96.19
69335;SHT31;56477;52.742;15.242;2023-02-15T04:46:27;-0.70;96.33
69335;SHT31;56477;52.742;15.242;2023-02-15T04:48:53;-0.73;96.35
69335;SHT31;56477;52.742;15.242;2023-02-15T04:51:20;-0.74;96.49
69335;SHT31;56477;52.742;15.242;2023-02-15T04:53:46;-0.76;96.49
69335;SHT31;56477;52.742;15.242;2023-02-15T04:56:12;-0.77;96.47
69335;SHT31;56477;52.742;15.242;2023-02-15T04:58:39;-0.79;96.64
69335;SHT31;56477;52.742;15.242;2023-02-15T05:01:08;-0.77;96.55
69335;SHT31;56477;52.742;15.242;2023-02-15T05:03:34;-0.83;96.54
69335;SHT31;56477;52.742;15.242;2023-02-15T05:06:01;-0.83;96.57
69335;SHT31;56477;52.742;15.242;2023-02-15T05:08:27;-0.84;96.72
69335;SHT31;56477;52.742;15.242;2023-02-15T05:10:53;-0.86;96.62
69335;SHT31;56477;52.742;15.242;2023-02-15T05:13:19;-0.87;96.79
69335;SHT31;56477;52.742;15.242;2023-02-15T05:15:51;-0.86;96.81
69335;SHT31;56477;52.742;15.242;2023-02-15T05:18:20;-0.87;96.90
69335;SHT31;56477;52.742;15.242;2023-02-15T05:20:46;-0.89;96.74
69335;SHT31;56477;52.742;15.242;2023-02-15T05:23:13;-0.89;96.58
69335;SHT31;56477;52.742;15.242;2023-02-15T05:25:39;-0.96;96.62
69335;SHT31;56477;52.742;15.242;2023-02-15T05:28:26;-0.97;96.78
69335;SHT31;56477;52.742;15.242;2023-02-15T05:33:33;-0.99;97.12
69335;SHT31;56477;52.742;15.242;2023-02-15T05:35:59;-0.96;97.11
69335;SHT31;56477;52.742;15.242;2023-02-15T05:38:25;-0.96;97.21
69335;SHT31;56477;52.742;15.242;2023-02-15T05:40:51;-0.96;97.13
69335;SHT31;56477;52.742;15.242;2023-02-15T05:43:18;-0.97;97.06
69335;SHT31;56477;52.742;15.242;2023-02-15T05:45:45;-0.93;97.07
69335;SHT31;56477;52.742;15.242;2023-02-15T05:48:12;-0.97;97.06
69335;SHT31;56477;52.742;15.242;2023-02-15T05:50:37;-1.01;97.05
69335;SHT31;56477;52.742;15.242;2023-02-15T05:53:04;-1.03;97.08
69335;SHT31;56477;52.742;15.242;2023-02-15T05:55:29;-1.03;97.12
69335;SHT31;56477;52.742;15.242;2023-02-15T05:57:56;-1.01;97.05
69335;SHT31;56477;52.742;15.242;2023-02-15T06:00:21;-1.03;97.06
69335;SHT31;56477;52.742;15.242;2023-02-15T06:02:48;-1.03;96.95
69335;SHT31;56477;52.742;15.242;2023-02-15T06:05:13;-1.08;96.93
69335;SHT31;56477;52.742;15.242;2023-02-15T06:07:43;-1.10;97.07
69335;SHT31;56477;52.742;15.242;2023-02-15T06:10:09;-1.08;97.10
69335;SHT31;56477;52.742;15.242;2023-02-15T06:12:35;-1.12;97.10
69335;SHT31;56477;52.742;15.242;2023-02-15T06:15:01;-1.10;97.11
69335;SHT31;56477;52.742;15.242;2023-02-15T06:17:27;-1.12;97.06
69335;SHT31;56477;52.742;15.242;2023-02-15T06:19:53;-1.11;97.16
69335;SHT31;56477;52.742;15.242;2023-02-15T06:22:20;-1.12;97.11
69335;SHT31;56477;52.742;15.242;2023-02-15T06:24:46;-1.11;97.13
69335;SHT31;56477;52.742;15.242;2023-02-15T06:27:12;-1.08;97.09
69335;SHT31;56477;52.742;15.242;2023-02-15T06:29:39;-1.08;96.95
69335;SHT31;56477;52.742;15.242;2023-02-15T06:32:05;-1.07;96.95
69335;SHT31;56477;52.742;15.242;2023-02-15T06:34:31;-1.10;96.95
69335;SHT31;56477;52.742;15.242;2023-02-15T06:36:58;-1.12;96.75
69335;SHT31;56477;52.742;15.242;2023-02-15T06:39:23;-1.12;96.87
69335;SHT31;56477;52.742;15.242;2023-02-15T06:41:50;-1.11;96.82
69335;SHT31;56477;52.742;15.242;2023-02-15T06:44:16;-1.10;96.84
69335;SHT31;56477;52.742;15.242;2023-02-15T06:46:42;-1.08;96.57
69335;SHT31;56477;52.742;15.242;2023-02-15T06:49:07;-1.08;96.63
69335;SHT31;56477;52.742;15.242;2023-02-15T06:51:34;-1.08;96.62
69335;SHT31;56477;52.742;15.242;2023-02-15T06:54:00;-1.00;96.56
69335;SHT31;56477;52.742;15.242;2023-02-15T06:56:26;-0.94;96.35
69335;SHT31;56477;52.742;15.242;2023-02-15T06:58:52;-0.87;96.06
69335;SHT31;56477;52.742;15.242;2023-02-15T07:01:18;-0.76;95.90
69335;SHT31;56477;52.742;15.242;2023-02-15T07:03:44;-0.74;95.55
69335;SHT31;56477;52.742;15.242;2023-02-15T07:06:11;-0.68;95.16
69335;SHT31;56477;52.742;15.242;2023-02-15T07:08:38;-0.39;94.58
69335;SHT31;56477;52.742;15.242;2023-02-15T07:11:05;-0.07;93.28
69335;SHT31;56477;52.742;15.242;2023-02-15T07:13:50;0.21;91.96
69335;SHT31;56477;52.742;15.242;2023-02-15T07:16:19;0.57;91.23
69335;SHT31;56477;52.742;15.242;2023-02-15T07:18:45;0.64;90.48
69335;SHT31;56477;52.742;15.242;2023-02-15T07:21:11;0.88;89.78
69335;SHT31;56477;52.742;15.242;2023-02-15T07:23:38;1.30;88.60
69335;SHT31;56477;52.742;15.242;2023-02-15T07:26:05;1.29;87.85
69335;SHT31;56477;52.742;15.242;2023-02-15T07:28:33;1.42;87.43
69335;SHT31;56477;52.742;15.242;2023-02-15T07:31:03;1.58;86.15
69335;SHT31;56477;52.742;15.242;2023-02-15T07:33:31;1.65;86.50
69335;SHT31;56477;52.742;15.242;2023-02-15T07:35:58;2.18;84.84
69335;SHT31;56477;52.742;15.242;2023-02-15T07:38:26;2.15;84.57
69335;SHT31;56477;52.742;15.242;2023-02-15T07:41:00;2.12;84.51
69335;SHT31;56477;52.742;15.242;2023-02-15T07:43:27;1.99;83.42
69335;SHT31;56477;52.742;15.242;2023-02-15T07:45:54;2.36;84.21
69335;SHT31;56477;52.742;15.242;2023-02-15T07:48:19;2.05;84.13
69335;SHT31;56477;52.742;15.242;2023-02-15T07:50:46;2.19;84.29
69335;SHT31;56477;52.742;15.242;2023-02-15T07:53:11;2.34;83.68
69335;SHT31;56477;52.742;15.242;2023-02-15T07:55:38;2.34;84.24
69335;SHT31;56477;52.742;15.242;2023-02-15T07:58:04;2.22;83.82
69335;SHT31;56477;52.742;15.242;2023-02-15T08:00:30;2.39;83.68
69335;SHT31;56477;52.742;15.242;2023-02-15T08:03:16;2.42;83.38
69335;SHT31;56477;52.742;15.242;2023-02-15T08:05:44;1.79;85.05
69335;SHT31;56477;52.742;15.242;2023-02-15T08:08:11;1.13;87.30
69335;SHT31;56477;52.742;15.242;2023-02-15T08:11:06;0.85;88.08
69335;SHT31;56477;52.742;15.242;2023-02-15T08:19:17;0.40;90.91
69335;SHT31;56477;52.742;15.242;2023-02-15T08:21:52;0.30;91.09
69335;SHT31;56477;52.742;15.242;2023-02-15T08:24:21;0.33;91.45
69335;SHT31;56477;52.742;15.242;2023-02-15T08:26:48;0.31;91.68
69335;SHT31;56477;52.742;15.242;2023-02-15T08:29:16;0.30;91.82
69335;SHT31;56477;52.742;15.242;2023-02-15T08:31:43;0.36;91.51
69335;SHT31;56477;52.742;15.242;2023-02-15T08:34:11;0.26;92.01
69335;SHT31;56477;52.742;15.242;2023-02-15T08:36:37;0.28;92.31
69335;SHT31;56477;52.742;15.242;2023-02-15T08:39:05;0.37;91.87
69335;SHT31;56477;52.742;15.242;2023-02-15T08:41:34;0.76;91.34
69335;SHT31;56477;52.742;15.242;2023-02-15T08:44:02;1.23;89.52
69335;SHT31;56477;52.742;15.242;2023-02-15T08:46:32;2.32;87.64
69335;SHT31;56477;52.742;15.242;2023-02-15T08:48:58;3.33;83.61
69335;SHT31;56477;52.742;15.242;2023-02-15T08:51:27;3.43;82.95
69335;SHT31;56477;52.742;15.242;2023-02-15T08:53:59;3.90;80.90
69335;SHT31;56477;52.742;15.242;2023-02-15T08:56:27;4.32;79.32
69335;SHT31;56477;52.742;15.242;2023-02-15T08:58:54;4.29;78.83
69335;SHT31;56477;52.742;15.242;2023-02-15T09:01:22;4.93;77.83
69335;SHT31;56477;52.742;15.242;2023-02-15T09:03:57;5.04;78.00
69335;SHT31;56477;52.742;15.242;2023-02-15T09:06:23;5.48;77.60
69335;SHT31;56477;52.742;15.242;2023-02-15T09:08:50;5.92;75.16
69335;SHT31;56477;52.742;15.242;2023-02-15T09:11:19;5.70;74.36
69335;SHT31;56477;52.742;15.242;2023-02-15T09:13:59;6.33;74.16
69335;SHT31;56477;52.742;15.242;2023-02-15T09:16:28;6.89;71.40
69335;SHT31;56477;52.742;15.242;2023-02-15T09:18:55;6.84;71.49
69335;SHT31;56477;52.742;15.242;2023-02-15T09:21:24;7.00;71.18
69335;SHT31;56477;52.742;15.242;2023-02-15T09:23:52;6.81;71.80
69335;SHT31;56477;52.742;15.242;2023-02-15T09:26:20;7.16;70.67
69335;SHT31;56477;52.742;15.242;2023-02-15T09:28:47;7.36;70.43
69335;SHT31;56477;52.742;15.242;2023-02-15T09:31:19;7.44;69.15
69335;SHT31;56477;52.742;15.242;2023-02-15T09:33:46;7.98;68.27
69335;SHT31;56477;52.742;15.242;2023-02-15T09:36:27;8.37;67.83
69335;SHT31;56477;52.742;15.242;2023-02-15T09:38:58;8.51;65.70
69335;SHT31;56477;52.742;15.242;2023-02-15T09:50:08;8.21;67.64
69335;SHT31;56477;52.742;15.242;2023-02-15T09:58:33;8.51;67.61
69335;SHT31;56477;52.742;15.242;2023-02-15T10:07:00;7.84;69.29
69335;SHT31;56477;52.742;15.242;2023-02-15T10:23:38;7.85;68.77
69335;SHT31;56477;52.742;15.242;2023-02-15T10:26:22;8.44;68.69
69335;SHT31;56477;52.742;15.242;2023-02-15T10:31:27;9.21;65.69
69335;SHT31;56477;52.742;15.242;2023-02-15T10:34:18;8.91;66.71
69335;SHT31;56477;52.742;15.242;2023-02-15T10:48:02;8.26;67.65
69335;SHT31;56477;52.742;15.242;2023-02-15T10:50:49;8.44;69.06
69335;SHT31;56477;52.742;15.242;2023-02-15T10:53:32;8.03;69.56
69335;SHT31;56477;52.742;15.242;2023-02-15T10:56:29;8.61;69.29
69335;SHT31;56477;52.742;15.242;2023-02-15T11:02:15;8.74;67.82
69335;SHT31;56477;52.742;15.242;2023-02-15T11:07:45;9.43;66.87
69335;SHT31;56477;52.742;15.242;2023-02-15T11:12:50;9.39;65.38
69335;SHT31;56477;52.742;15.242;2023-02-15T11:15:36;9.43;65.86
69335;SHT31;56477;52.742;15.242;2023-02-15T11:20:42;9.44;65.27
69335;SHT31;56477;52.742;15.242;2023-02-15T11:23:14;9.39;65.80
69335;SHT31;56477;52.742;15.242;2023-02-15T11:25:45;9.18;66.67
69335;SHT31;56477;52.742;15.242;2023-02-15T11:28:27;9.79;65.16
69335;SHT31;56477;52.742;15.242;2023-02-15T11:30:56;10.25;63.77
69335;SHT31;56477;52.742;15.242;2023-02-15T11:33:34;10.21;64.25
69335;SHT31;56477;52.742;15.242;2023-02-15T11:36:22;10.32;63.39
69335;SHT31;56477;52.742;15.242;2023-02-15T11:38:56;9.98;64.23
69335;SHT31;56477;52.742;15.242;2023-02-15T11:41:30;10.45;63.31
69335;SHT31;56477;52.742;15.242;2023-02-15T11:44:10;10.00;63.56
69335;SHT31;56477;52.742;15.242;2023-02-15T11:46:38;9.77;64.88
69335;SHT31;56477;52.742;15.242;2023-02-15T11:49:29;10.59;62.45
69335;SHT31;56477;52.742;15.242;2023-02-15T11:51:57;11.28;61.98
69335;SHT31;56477;52.742;15.242;2023-02-15T11:54:32;11.48;60.27
69335;SHT31;56477;52.742;15.242;2023-02-15T11:59:40;11.92;59.04
69335;SHT31;56477;52.742;15.242;2023-02-15T12:02:19;11.75;60.20
69335;SHT31;56477;52.742;15.242;2023-02-15T12:04:59;11.39;59.97
69335;SHT31;56477;52.742;15.242;2023-02-15T12:07:40;11.46;60.16
69335;SHT31;56477;52.742;15.242;2023-02-15T12:12:40;11.71;59.05
69335;SHT31;56477;52.742;15.242;2023-02-15T12:15:11;11.54;59.50
69335;SHT31;56477;52.742;15.242;2023-02-15T12:22:48;12.29;58.04
69335;SHT31;56477;52.742;15.242;2023-02-15T12:25:26;12.40;57.61
69335;SHT31;56477;52.742;15.242;2023-02-15T12:27:55;12.85;56.23
69335;SHT31;56477;52.742;15.242;2023-02-15T12:30:36;12.93;55.69
69335;SHT31;56477;52.742;15.242;2023-02-15T12:35:30;13.53;53.86
69335;SHT31;56477;52.742;15.242;2023-02-15T12:40:29;13.15;56.08
69335;SHT31;56477;52.742;15.242;2023-02-15T12:42:55;13.32;54.35
69335;SHT31;56477;52.742;15.242;2023-02-15T12:48:19;13.40;54.96
69335;SHT31;56477;52.742;15.242;2023-02-15T12:50:50;13.73;53.94
69335;SHT31;56477;52.742;15.242;2023-02-15T12:53:22;12.92;55.18
69335;SHT31;56477;52.742;15.242;2023-02-15T12:58:19;13.15;55.94
69335;SHT31;56477;52.742;15.242;2023-02-15T13:00:45;12.98;55.68
69335;SHT31;56477;52.742;15.242;2023-02-15T13:03:20;13.47;54.71
69335;SHT31;56477;52.742;15.242;2023-02-15T13:05:51;13.13;55.07
69335;SHT31;56477;52.742;15.242;2023-02-15T13:08:22;13.16;56.16
69335;SHT31;56477;52.742;15.242;2023-02-15T13:11:11;13.51;54.17
69335;SHT31;56477;52.742;15.242;2023-02-15T13:13:56;13.98;53.70
69335;SHT31;56477;52.742;15.242;2023-02-15T13:16:37;14.46;52.81
69335;SHT31;56477;52.742;15.242;2023-02-15T13:19:15;13.51;54.80
69335;SHT31;56477;52.742;15.242;2023-02-15T13:21:45;14.12;53.48
69335;SHT31;56477;52.742;15.242;2023-02-15T13:24:22;14.19;53.32
69335;SHT31;56477;52.742;15.242;2023-02-15T13:26:49;13.36;55.36
69335;SHT31;56477;52.742;15.242;2023-02-15T13:29:33;13.29;55.23
69335;SHT31;56477;52.742;15.242;2023-02-15T13:32:33;13.02;56.07
69335;SHT31;56477;52.742;15.242;2023-02-15T13:35:03;13.08;56.96
69335;SHT31;56477;52.742;15.242;2023-02-15T13:41:03;12.57;57.41
69335;SHT31;56477;52.742;15.242;2023-02-15T13:51:13;12.27;58.56
69335;SHT31;56477;52.742;15.242;2023-02-15T14:15:47;11.54;60.76
69335;SHT31;56477;52.742;15.242;2023-02-15T14:18:18;11.61;61.16
69335;SHT31;56477;52.742;15.242;2023-02-15T14:23:52;11.75;60.75
69335;SHT31;56477;52.742;15.242;2023-02-15T14:26:28;11.76;61.07
69335;SHT31;56477;52.742;15.242;2023-02-15T14:32:04;11.38;61.93
69335;SHT31;56477;52.742;15.242;2023-02-15T14:34:46;11.20;62.50
69335;SHT31;56477;52.742;15.242;2023-02-15T14:37:18;11.00;63.20
69335;SHT31;56477;52.742;15.242;2023-02-15T14:40:00;10.69;63.71
69335;SHT31;56477;52.742;15.242;2023-02-15T14:54:53;10.46;65.31
69335;SHT31;56477;52.742;15.242;2023-02-15T15:02:25;10.27;66.24
69335;SHT31;56477;52.742;15.242;2023-02-15T15:12:55;9.90;67.66
69335;SHT31;56477;52.742;15.242;2023-02-15T15:28:08;9.21;70.18
69335;SHT31;56477;52.742;15.242;2023-02-15T15:33:43;9.09;70.46
69335;SHT31;56477;52.742;15.242;2023-02-15T15:41:45;8.65;72.09
69335;SHT31;56477;52.742;15.242;2023-02-15T15:49:46;8.26;73.34
69335;SHT31;56477;52.742;15.242;2023-02-15T15:52:18;8.16;73.89
69335;SHT31;56477;52.742;15.242;2023-02-15T15:54:47;8.14;73.83
69335;SHT31;56477;52.742;15.242;2023-02-15T15:57:25;8.06;74.17
69335;SHT31;56477;52.742;15.242;2023-02-15T15:59:53;8.02;74.25
69335;SHT31;56477;52.742;15.242;2023-02-15T16:02:20;7.89;74.81
69335;SHT31;56477;52.742;15.242;2023-02-15T16:04:46;7.84;75.08
69335;SHT31;56477;52.742;15.242;2023-02-15T16:07:33;7.68;75.31
69335;SHT31;56477;52.742;15.242;2023-02-15T16:10:04;7.61;75.84
69335;SHT31;56477;52.742;15.242;2023-02-15T16:12:33;7.55;75.96
69335;SHT31;56477;52.742;15.242;2023-02-15T16:15:44;7.51;75.87
69335;SHT31;56477;52.742;15.242;2023-02-15T16:17:54;7.48;76.00
69335;SHT31;56477;52.742;15.242;2023-02-15T16:20:29;7.38;76.29
69335;SHT31;56477;52.742;15.242;2023-02-15T16:25:39;7.28;76.90
69335;SHT31;56477;52.742;15.242;2023-02-15T16:28:11;7.23;77.14
69335;SHT31;56477;52.742;15.242;2023-02-15T16:30:39;7.12;77.65
69335;SHT31;56477;52.742;15.242;2023-02-15T16:35:34;7.05;77.91
69335;SHT31;56477;52.742;15.242;2023-02-15T16:38:01;6.96;78.25
69335;SHT31;56477;52.742;15.242;2023-02-15T16:43:04;6.92;78.46
69335;SHT31;56477;52.742;15.242;2023-02-15T16:45:32;6.89;78.28
69335;SHT31;56477;52.742;15.242;2023-02-15T16:48:00;6.88;78.35
69335;SHT31;56477;52.742;15.242;2023-02-15T16:50:33;6.88;78.21
69335;SHT31;56477;52.742;15.242;2023-02-15T16:53:00;6.88;78.27
69335;SHT31;56477;52.742;15.242;2023-02-15T16:55:38;6.85;78.30
69335;SHT31;56477;52.742;15.242;2023-02-15T16:58:06;6.79;78.28
69335;SHT31;56477;52.742;15.242;2023-02-15T17:00:38;6.75;78.75
69335;SHT31;56477;52.742;15.242;2023-02-15T17:03:22;6.69;78.76
69335;SHT31;56477;52.742;15.242;2023-02-15T17:05:50;6.58;79.17
69335;SHT31;56477;52.742;15.242;2023-02-15T17:08:33;6.49;79.39
69335;SHT31;56477;52.742;15.242;2023-02-15T17:11:15;6.41;79.97
69335;SHT31;56477;52.742;15.242;2023-02-15T17:16:50;6.40;80.07
69335;SHT31;56477;52.742;15.242;2023-02-15T17:19:27;6.34;80.24
69335;SHT31;56477;52.742;15.242;2023-02-15T17:21:56;6.31;80.41
69335;SHT31;56477;52.742;15.242;2023-02-15T17:27:22;6.26;80.52
69335;SHT31;56477;52.742;15.242;2023-02-15T17:29:56;6.18;80.64
69335;SHT31;56477;52.742;15.242;2023-02-15T17:32:29;6.17;80.62
69335;SHT31;56477;52.742;15.242;2023-02-15T17:35:20;6.10;81.18
69335;SHT31;56477;52.742;15.242;2023-02-15T17:37:48;6.05;81.24
69335;SHT31;56477;52.742;15.242;2023-02-15T17:42:50;5.89;81.83
69335;SHT31;56477;52.742;15.242;2023-02-15T17:45:16;5.90;81.77
69335;SHT31;56477;52.742;15.242;2023-02-15T17:47:43;5.82;82.01
69335;SHT31;56477;52.742;15.242;2023-02-15T17:50:18;5.78;82.77
69335;SHT31;56477;52.742;15.242;2023-02-15T17:52:45;5.69;82.69
69335;SHT31;56477;52.742;15.242;2023-02-15T17:55:17;5.62;82.91
69335;SHT31;56477;52.742;15.242;2023-02-15T17:58:06;5.55;83.04
69335;SHT31;56477;52.742;15.242;2023-02-15T18:00:35;5.52;83.38
69335;SHT31;56477;52.742;15.242;2023-02-15T18:03:21;5.51;83.56
69335;SHT31;56477;52.742;15.242;2023-02-15T18:06:06;5.51;83.54
69335;SHT31;56477;52.742;15.242;2023-02-15T18:08:51;5.52;83.57
69335;SHT31;56477;52.742;15.242;2023-02-15T18:11:35;5.49;83.69
69335;SHT31;56477;52.742;15.242;2023-02-15T18:14:04;5.54;83.79
69335;SHT31;56477;52.742;15.242;2023-02-15T18:16:34;5.56;83.57
69335;SHT31;56477;52.742;15.242;2023-02-15T18:19:02;5.54;83.79
69335;SHT31;56477;52.742;15.242;2023-02-15T18:21:30;5.60;83.56
69335;SHT31;56477;52.742;15.242;2023-02-15T18:23:57;5.55;83.54
69335;SHT31;56477;52.742;15.242;2023-02-15T18:26:23;5.49;83.61
69335;SHT31;56477;52.742;15.242;2023-02-15T18:28:50;5.45;83.70
69335;SHT31;56477;52.742;15.242;2023-02-15T18:31:18;5.41;83.94
69335;SHT31;56477;52.742;15.242;2023-02-15T18:33:49;5.41;83.92
69335;SHT31;56477;52.742;15.242;2023-02-15T18:36:25;5.37;84.15
69335;SHT31;56477;52.742;15.242;2023-02-15T18:38:54;5.28;84.16
69335;SHT31;56477;52.742;15.242;2023-02-15T18:41:21;5.27;84.67
69335;SHT31;56477;52.742;15.242;2023-02-15T18:43:48;5.30;84.62
69335;SHT31;56477;52.742;15.242;2023-02-15T18:46:15;5.34;84.31
69335;SHT31;56477;52.742;15.242;2023-02-15T18:48:42;5.27;84.39
69335;SHT31;56477;52.742;15.242;2023-02-15T18:51:22;5.18;84.81
69335;SHT31;56477;52.742;15.242;2023-02-15T18:53:50;5.11;85.03
69335;SHT31;56477;52.742;15.242;2023-02-15T18:56:19;5.04;85.11
69335;SHT31;56477;52.742;15.242;2023-02-15T18:58:46;4.99;85.34
69335;SHT31;56477;52.742;15.242;2023-02-15T19:01:16;4.94;85.49
69335;SHT31;56477;52.742;15.242;2023-02-15T19:03:47;4.86;85.74
69335;SHT31;56477;52.742;15.242;2023-02-15T19:06:15;4.80;85.80
69335;SHT31;56477;52.742;15.242;2023-02-15T19:08:45;4.68;86.06
69335;SHT31;56477;52.742;15.242;2023-02-15T19:11:14;4.59;86.57
69335;SHT31;56477;52.742;15.242;2023-02-15T19:13:40;4.56;86.82
69335;SHT31;56477;52.742;15.242;2023-02-15T19:16:13;4.52;86.96
69335;SHT31;56477;52.742;15.242;2023-02-15T19:18:43;4.45;87.21
69335;SHT31;56477;52.742;15.242;2023-02-15T19:21:14;4.45;87.33
69335;SHT31;56477;52.742;15.242;2023-02-15T19:23:40;4.42;87.24
69335;SHT31;56477;52.742;15.242;2023-02-15T19:26:06;4.41;87.44
69335;SHT31;56477;52.742;15.242;2023-02-15T19:28:33;4.45;87.37
69335;SHT31;56477;52.742;15.242;2023-02-15T19:30:59;4.39;87.47
69335;SHT31;56477;52.742;15.242;2023-02-15T19:33:25;4.41;87.49
69335;SHT31;56477;52.742;15.242;2023-02-15T19:35:52;4.38;87.40
69335;SHT31;56477;52.742;15.242;2023-02-15T19:38:32;4.32;87.44
69335;SHT31;56477;52.742;15.242;2023-02-15T19:41:06;4.32;87.69